sensor_id;sensor_type;location;lat;lon;timestamp;P1;durP1;ratioP1;P2;durP2;ratioP2
19814;SDS011;10067;53.092;8.800;2024-02-26T00:01:01;26.37;;;20.27;;
19814;SDS011;10067;53.092;8.800;2024-02-26T00:03:29;28.47;;;21.20;;
19814;SDS011;10067;53.092;8.800;2024-02-26T00:05:57;26.37;;;21.10;;
19814;SDS011;10067;53.092;8.800;2024-02-26T00:08:23;27.40;;;21.30;;
19814;SDS011;10067;53.092;8.800;2024-02-26T00:10:50;27.40;;;20.30;;
19814;SDS011;10067;53.092;8.800;2024-02-26T00:13:16;24.57;;;18.97;;
19814;SDS011;10067;53.092;8.800;2024-02-26T00:15:43;25.90;;;20.00;;
19814;SDS011;10067;53.092;8.800;2024-02-26T00:18:09;25.33;;;19.77;;
19814;SDS011;10067;53.092;8.800;2024-02-26T00:20:37;25.13;;;19.87;;
19814;SDS011;10067;53.092;8.800;2024-02-26T00:23:04;23.70;;;19.63;;
19814;SDS011;10067;53.092;8.800;2024-02-26T00:25:31;22.83;;;19.60;;
19814;SDS011;10067;53.092;8.800;2024-02-26T00:27:57;24.47;;;19.70;;
19814;SDS011;10067;53.092;8.800;2024-02-26T00:30:23;23.40;;;18.47;;
19814;SDS011;10067;53.092;8.800;2024-02-26T00:32:50;23.53;;;18.97;;
19814;SDS011;10067;53.092;8.800;2024-02-26T00:35:16;22.87;;;19.00;;
19814;SDS011;10067;53.092;8.800;2024-02-26T00:37:47;22.73;;;18.83;;
19814;SDS011;10067;53.092;8.800;2024-02-26T00:40:13;25.80;;;19.47;;
19814;SDS011;10067;53.092;8.800;2024-02-26T00:42:39;23.67;;;18.93;;
19814;SDS011;10067;53.092;8.800;2024-02-26T00:45:10;22.20;;;18.17;;
19814;SDS011;10067;53.092;8.800;2024-02-26T00:47:36;24.33;;;19.03;;
19814;SDS011;10067;53.092;8.800;2024-02-26T00:50:03;24.47;;;19.63;;
19814;SDS011;10067;53.092;8.800;2024-02-26T00:52:30;24.93;;;20.03;;
19814;SDS011;10067;53.092;8.800;2024-02-26T00:54:57;28.60;;;21.10;;
19814;SDS011;10067;53.092;8.800;2024-02-26T00:57:24;29.80;;;21.13;;
19814;SDS011;10067;53.092;8.800;2024-02-26T00:59:50;25.37;;;20.83;;
19814;SDS011;10067;53.092;8.800;2024-02-26T01:02:17;29.67;;;21.57;;
19814;SDS011;10067;53.092;8.800;2024-02-26T01:04:43;28.07;;;22.03;;
19814;SDS011;10067;53.092;8.800;2024-02-26T01:07:09;25.63;;;20.00;;
19814;SDS011;10067;53.092;8.800;2024-02-26T01:09:36;26.50;;;20.80;;
19814;SDS011;10067;53.092;8.800;2024-02-26T01:12:04;27.20;;;21.33;;
19814;SDS011;10067;53.092;8.800;2024-02-26T01:14:30;26.63;;;20.60;;
19814;SDS011;10067;53.092;8.800;2024-02-26T01:16:57;24.70;;;20.13;;
19814;SDS011;10067;53.092;8.800;2024-02-26T01:19:23;26.17;;;19.90;;
19814;SDS011;10067;53.092;8.800;2024-02-26T01:21:49;24.20;;;20.07;;
19814;SDS011;10067;53.092;8.800;2024-02-26T01:24:16;28.57;;;21.77;;
19814;SDS011;10067;53.092;8.800;2024-02-26T01:26:42;25.03;;;19.47;;
19814;SDS011;10067;53.092;8.800;2024-02-26T01:29:10;23.87;;;20.47;;
19814;SDS011;10067;53.092;8.800;2024-02-26T01:31:36;23.83;;;19.30;;
19814;SDS011;10067;53.092;8.800;2024-02-26T01:34:02;26.67;;;20.23;;
19814;SDS011;10067;53.092;8.800;2024-02-26T01:36:29;27.07;;;20.17;;
19814;SDS011;10067;53.092;8.800;2024-02-26T01:38:55;23.57;;;18.97;;
19814;SDS011;10067;53.092;8.800;2024-02-26T01:41:22;23.67;;;18.90;;
19814;SDS011;10067;53.092;8.800;2024-02-26T01:43:48;23.30;;;18.00;;
19814;SDS011;10067;53.092;8.800;2024-02-26T01:46:16;24.03;;;18.67;;
19814;SDS011;10067;53.092;8.800;2024-02-26T01:48:43;23.07;;;18.60;;
19814;SDS011;10067;53.092;8.800;2024-02-26T01:51:10;24.13;;;18.07;;
19814;SDS011;10067;53.092;8.800;2024-02-26T01:53:38;24.37;;;18.43;;
19814;SDS011;10067;53.092;8.800;2024-02-26T01:56:04;24.00;;;19.20;;
19814;SDS011;10067;53.092;8.800;2024-02-26T01:58:31;21.57;;;17.63;;
19814;SDS011;10067;53.092;8.800;2024-02-26T02:00:58;22.77;;;17.83;;
19814;SDS011;10067;53.092;8.800;2024-02-26T02:03:26;25.20;;;19.30;;
19814;SDS011;10067;53.092;8.800;2024-02-26T02:05:52;24.73;;;18.43;;
19814;SDS011;10067;53.092;8.800;2024-02-26T02:08:19;24.33;;;19.37;;
19814;SDS011;10067;53.092;8.800;2024-02-26T02:10:51;24.53;;;18.80;;
19814;SDS011;10067;53.092;8.800;2024-02-26T02:13:18;24.40;;;18.70;;
19814;SDS011;10067;53.092;8.800;2024-02-26T02:15:44;22.33;;;17.23;;
19814;SDS011;10067;53.092;8.800;2024-02-26T02:18:10;23.20;;;17.20;;
19814;SDS011;10067;53.092;8.800;2024-02-26T02:20:38;24.40;;;18.60;;
19814;SDS011;10067;53.092;8.800;2024-02-26T02:23:04;24.40;;;18.30;;
19814;SDS011;10067;53.092;8.800;2024-02-26T02:25:31;24.03;;;18.53;;
19814;SDS011;10067;53.092;8.800;2024-02-26T02:27:57;25.60;;;19.00;;
19814;SDS011;10067;53.092;8.800;2024-02-26T02:30:24;24.53;;;17.87;;
19814;SDS011;10067;53.092;8.800;2024-02-26T02:32:51;25.60;;;19.73;;
19814;SDS011;10067;53.092;8.800;2024-02-26T02:35:17;24.80;;;18.70;;
19814;SDS011;10067;53.092;8.800;2024-02-26T02:37:45;26.83;;;19.10;;
19814;SDS011;10067;53.092;8.800;2024-02-26T02:40:11;25.10;;;18.57;;
19814;SDS011;10067;53.092;8.800;2024-02-26T02:42:38;26.07;;;18.60;;
19814;SDS011;10067;53.092;8.800;2024-02-26T02:45:04;25.13;;;18.93;;
19814;SDS011;10067;53.092;8.800;2024-02-26T02:47:31;24.53;;;18.33;;
19814;SDS011;10067;53.092;8.800;2024-02-26T02:49:57;23.37;;;18.00;;
19814;SDS011;10067;53.092;8.800;2024-02-26T02:52:24;26.07;;;18.23;;
19814;SDS011;10067;53.092;8.800;2024-02-26T02:54:51;23.20;;;18.10;;
19814;SDS011;10067;53.092;8.800;2024-02-26T02:57:18;26.97;;;19.00;;
19814;SDS011;10067;53.092;8.800;2024-02-26T02:59:44;26.33;;;19.47;;
19814;SDS011;10067;53.092;8.800;2024-02-26T03:02:10;26.87;;;18.23;;
19814;SDS011;10067;53.092;8.800;2024-02-26T03:04:37;28.17;;;19.87;;
19814;SDS011;10067;53.092;8.800;2024-02-26T03:07:03;25.33;;;18.50;;
19814;SDS011;10067;53.092;8.800;2024-02-26T03:09:29;24.17;;;18.30;;
19814;SDS011;10067;53.092;8.800;2024-02-26T03:11:57;26.50;;;18.77;;
19814;SDS011;10067;53.092;8.800;2024-02-26T03:14:24;25.40;;;18.07;;
19814;SDS011;10067;53.092;8.800;2024-02-26T03:16:54;26.40;;;19.33;;
19814;SDS011;10067;53.092;8.800;2024-02-26T03:19:20;25.50;;;18.73;;
19814;SDS011;10067;53.092;8.800;2024-02-26T03:21:46;29.13;;;20.00;;
19814;SDS011;10067;53.092;8.800;2024-02-26T03:24:13;26.43;;;19.30;;
19814;SDS011;10067;53.092;8.800;2024-02-26T03:26:39;29.20;;;20.47;;
19814;SDS011;10067;53.092;8.800;2024-02-26T03:29:07;27.73;;;19.33;;
19814;SDS011;10067;53.092;8.800;2024-02-26T03:31:33;26.60;;;18.47;;
19814;SDS011;10067;53.092;8.800;2024-02-26T03:34:00;28.60;;;20.80;;
19814;SDS011;10067;53.092;8.800;2024-02-26T03:36:26;25.93;;;18.73;;
19814;SDS011;10067;53.092;8.800;2024-02-26T03:38:52;26.80;;;18.87;;
19814;SDS011;10067;53.092;8.800;2024-02-26T03:41:19;26.80;;;19.37;;
19814;SDS011;10067;53.092;8.800;2024-02-26T03:43:45;27.83;;;19.00;;
19814;SDS011;10067;53.092;8.800;2024-02-26T03:46:13;27.00;;;19.17;;
19814;SDS011;10067;53.092;8.800;2024-02-26T03:48:39;25.67;;;19.17;;
19814;SDS011;10067;53.092;8.800;2024-02-26T03:51:06;26.77;;;19.37;;
19814;SDS011;10067;53.092;8.800;2024-02-26T03:53:34;26.87;;;19.83;;
19814;SDS011;10067;53.092;8.800;2024-02-26T03:56:02;30.80;;;19.97;;
19814;SDS011;10067;53.092;8.800;2024-02-26T03:58:29;26.20;;;18.77;;
19814;SDS011;10067;53.092;8.800;2024-02-26T04:00:55;27.63;;;20.50;;
19814;SDS011;10067;53.092;8.800;2024-02-26T04:03:23;26.80;;;19.70;;
19814;SDS011;10067;53.092;8.800;2024-02-26T04:05:49;27.87;;;19.40;;
19814;SDS011;10067;53.092;8.800;2024-02-26T04:08:15;26.83;;;19.07;;
19814;SDS011;10067;53.092;8.800;2024-02-26T04:10:42;27.57;;;19.43;;
19814;SDS011;10067;53.092;8.800;2024-02-26T04:13:10;25.70;;;19.37;;
19814;SDS011;10067;53.092;8.800;2024-02-26T04:15:37;30.40;;;20.57;;
19814;SDS011;10067;53.092;8.800;2024-02-26T04:18:04;27.77;;;18.63;;
19814;SDS011;10067;53.092;8.800;2024-02-26T04:20:31;31.43;;;21.07;;
19814;SDS011;10067;53.092;8.800;2024-02-26T04:22:58;29.27;;;20.40;;
19814;SDS011;10067;53.092;8.800;2024-02-26T04:25:24;29.40;;;20.10;;
19814;SDS011;10067;53.092;8.800;2024-02-26T04:27:50;29.13;;;20.97;;
19814;SDS011;10067;53.092;8.800;2024-02-26T04:30:17;27.60;;;19.23;;
19814;SDS011;10067;53.092;8.800;2024-02-26T04:32:43;27.57;;;19.70;;
19814;SDS011;10067;53.092;8.800;2024-02-26T04:35:10;28.40;;;20.27;;
19814;SDS011;10067;53.092;8.800;2024-02-26T04:37:37;29.37;;;20.17;;
19814;SDS011;10067;53.092;8.800;2024-02-26T04:40:04;28.07;;;20.07;;
19814;SDS011;10067;53.092;8.800;2024-02-26T04:42:31;30.57;;;19.77;;
19814;SDS011;10067;53.092;8.800;2024-02-26T04:44:57;28.97;;;20.70;;
19814;SDS011;10067;53.092;8.800;2024-02-26T04:47:24;28.00;;;20.13;;
19814;SDS011;10067;53.092;8.800;2024-02-26T04:49:50;27.13;;;19.27;;
19814;SDS011;10067;53.092;8.800;2024-02-26T04:52:17;28.60;;;19.80;;
19814;SDS011;10067;53.092;8.800;2024-02-26T04:54:45;26.70;;;19.77;;
19814;SDS011;10067;53.092;8.800;2024-02-26T04:57:11;23.93;;;17.57;;
19814;SDS011;10067;53.092;8.800;2024-02-26T04:59:37;27.90;;;18.90;;
19814;SDS011;10067;53.092;8.800;2024-02-26T05:02:05;28.13;;;19.33;;
19814;SDS011;10067;53.092;8.800;2024-02-26T05:04:32;27.23;;;18.30;;
19814;SDS011;10067;53.092;8.800;2024-02-26T05:06:58;27.53;;;19.40;;
19814;SDS011;10067;53.092;8.800;2024-02-26T05:09:25;27.10;;;18.93;;
19814;SDS011;10067;53.092;8.800;2024-02-26T05:11:53;26.93;;;19.63;;
19814;SDS011;10067;53.092;8.800;2024-02-26T05:14:19;23.97;;;17.50;;
19814;SDS011;10067;53.092;8.800;2024-02-26T05:16:46;26.47;;;18.67;;
19814;SDS011;10067;53.092;8.800;2024-02-26T05:19:13;22.27;;;17.33;;
19814;SDS011;10067;53.092;8.800;2024-02-26T05:21:39;25.23;;;18.63;;
19814;SDS011;10067;53.092;8.800;2024-02-26T05:24:06;26.00;;;18.43;;
19814;SDS011;10067;53.092;8.800;2024-02-26T05:26:33;25.83;;;18.03;;
19814;SDS011;10067;53.092;8.800;2024-02-26T05:29:00;26.53;;;18.17;;
19814;SDS011;10067;53.092;8.800;2024-02-26T05:31:27;24.57;;;18.13;;
19814;SDS011;10067;53.092;8.800;2024-02-26T05:33:54;26.27;;;18.50;;
19814;SDS011;10067;53.092;8.800;2024-02-26T05:36:21;24.30;;;18.00;;
19814;SDS011;10067;53.092;8.800;2024-02-26T05:38:48;24.03;;;18.20;;
19814;SDS011;10067;53.092;8.800;2024-02-26T05:41:15;25.23;;;18.57;;
19814;SDS011;10067;53.092;8.800;2024-02-26T05:43:41;25.37;;;19.03;;
19814;SDS011;10067;53.092;8.800;2024-02-26T05:46:09;26.43;;;19.37;;
19814;SDS011;10067;53.092;8.800;2024-02-26T05:48:35;28.07;;;19.93;;
19814;SDS011;10067;53.092;8.800;2024-02-26T05:51:02;29.77;;;20.47;;
19814;SDS011;10067;53.092;8.800;2024-02-26T05:53:28;31.23;;;20.63;;
19814;SDS011;10067;53.092;8.800;2024-02-26T05:55:55;31.83;;;21.80;;
19814;SDS011;10067;53.092;8.800;2024-02-26T05:58:22;35.20;;;22.57;;
19814;SDS011;10067;53.092;8.800;2024-02-26T06:00:48;35.70;;;23.03;;
19814;SDS011;10067;53.092;8.800;2024-02-26T06:03:16;42.50;;;25.80;;
19814;SDS011;10067;53.092;8.800;2024-02-26T06:05:42;38.03;;;24.63;;
19814;SDS011;10067;53.092;8.800;2024-02-26T06:08:09;46.20;;;27.33;;
19814;SDS011;10067;53.092;8.800;2024-02-26T06:10:35;43.07;;;25.70;;
19814;SDS011;10067;53.092;8.800;2024-02-26T06:13:01;43.57;;;26.23;;
19814;SDS011;10067;53.092;8.800;2024-02-26T06:15:28;45.43;;;28.23;;
19814;SDS011;10067;53.092;8.800;2024-02-26T06:17:56;47.10;;;27.80;;
19814;SDS011;10067;53.092;8.800;2024-02-26T06:20:23;48.93;;;29.50;;
19814;SDS011;10067;53.092;8.800;2024-02-26T06:22:50;54.23;;;29.67;;
19814;SDS011;10067;53.092;8.800;2024-02-26T06:25:16;51.20;;;29.73;;
19814;SDS011;10067;53.092;8.800;2024-02-26T06:27:43;50.53;;;29.33;;
19814;SDS011;10067;53.092;8.800;2024-02-26T06:30:09;51.97;;;29.67;;
19814;SDS011;10067;53.092;8.800;2024-02-26T06:32:36;48.60;;;28.77;;
19814;SDS011;10067;53.092;8.800;2024-02-26T06:35:02;53.67;;;30.00;;
19814;SDS011;10067;53.092;8.800;2024-02-26T06:37:33;54.10;;;31.50;;
19814;SDS011;10067;53.092;8.800;2024-02-26T06:39:59;55.27;;;30.90;;
19814;SDS011;10067;53.092;8.800;2024-02-26T06:42:26;46.93;;;27.90;;
19814;SDS011;10067;53.092;8.800;2024-02-26T06:44:52;54.43;;;31.77;;
19814;SDS011;10067;53.092;8.800;2024-02-26T06:47:18;54.20;;;31.47;;
19814;SDS011;10067;53.092;8.800;2024-02-26T06:49:45;55.00;;;31.53;;
19814;SDS011;10067;53.092;8.800;2024-02-26T06:52:11;55.73;;;31.47;;
19814;SDS011;10067;53.092;8.800;2024-02-26T06:54:39;55.73;;;31.53;;
19814;SDS011;10067;53.092;8.800;2024-02-26T06:57:06;54.67;;;31.67;;
19814;SDS011;10067;53.092;8.800;2024-02-26T06:59:33;53.93;;;29.70;;
19814;SDS011;10067;53.092;8.800;2024-02-26T07:01:59;56.93;;;32.67;;
19814;SDS011;10067;53.092;8.800;2024-02-26T07:04:26;58.53;;;31.97;;
19814;SDS011;10067;53.092;8.800;2024-02-26T07:06:53;52.07;;;30.77;;
19814;SDS011;10067;53.092;8.800;2024-02-26T07:09:19;52.53;;;30.73;;
19814;SDS011;10067;53.092;8.800;2024-02-26T07:11:47;54.43;;;31.53;;
19814;SDS011;10067;53.092;8.800;2024-02-26T07:14:13;52.90;;;31.37;;
19814;SDS011;10067;53.092;8.800;2024-02-26T07:16:40;56.07;;;30.97;;
19814;SDS011;10067;53.092;8.800;2024-02-26T07:19:06;54.23;;;29.90;;
19814;SDS011;10067;53.092;8.800;2024-02-26T07:21:32;58.57;;;32.37;;
19814;SDS011;10067;53.092;8.800;2024-02-26T07:23:59;61.37;;;32.73;;
19814;SDS011;10067;53.092;8.800;2024-02-26T07:26:25;57.27;;;32.07;;
19814;SDS011;10067;53.092;8.800;2024-02-26T07:28:53;61.40;;;31.37;;
19814;SDS011;10067;53.092;8.800;2024-02-26T07:31:19;59.93;;;33.23;;
19814;SDS011;10067;53.092;8.800;2024-02-26T07:33:46;60.33;;;33.37;;
19814;SDS011;10067;53.092;8.800;2024-02-26T07:36:12;58.50;;;32.87;;
19814;SDS011;10067;53.092;8.800;2024-02-26T07:38:39;65.17;;;35.50;;
19814;SDS011;10067;53.092;8.800;2024-02-26T07:41:05;66.90;;;35.47;;
19814;SDS011;10067;53.092;8.800;2024-02-26T07:43:31;63.33;;;34.50;;
19814;SDS011;10067;53.092;8.800;2024-02-26T07:45:59;69.60;;;37.27;;
19814;SDS011;10067;53.092;8.800;2024-02-26T07:48:25;67.27;;;36.87;;
19814;SDS011;10067;53.092;8.800;2024-02-26T07:50:52;64.20;;;34.20;;
19814;SDS011;10067;53.092;8.800;2024-02-26T07:53:18;62.73;;;34.17;;
19814;SDS011;10067;53.092;8.800;2024-02-26T07:55:45;67.20;;;35.97;;
19814;SDS011;10067;53.092;8.800;2024-02-26T07:58:11;63.40;;;36.27;;
19814;SDS011;10067;53.092;8.800;2024-02-26T08:00:37;61.23;;;34.70;;
19814;SDS011;10067;53.092;8.800;2024-02-26T08:03:05;61.53;;;34.73;;
19814;SDS011;10067;53.092;8.800;2024-02-26T08:05:33;63.93;;;34.67;;
19814;SDS011;10067;53.092;8.800;2024-02-26T08:07:59;60.17;;;34.90;;
19814;SDS011;10067;53.092;8.800;2024-02-26T08:10:25;65.47;;;36.73;;
19814;SDS011;10067;53.092;8.800;2024-02-26T08:12:52;63.30;;;35.93;;
19814;SDS011;10067;53.092;8.800;2024-02-26T08:15:18;64.30;;;37.87;;
19814;SDS011;10067;53.092;8.800;2024-02-26T08:17:44;62.03;;;36.30;;
19814;SDS011;10067;53.092;8.800;2024-02-26T08:20:14;61.67;;;36.03;;
19814;SDS011;10067;53.092;8.800;2024-02-26T08:22:40;63.43;;;34.33;;
19814;SDS011;10067;53.092;8.800;2024-02-26T08:25:07;61.70;;;34.57;;
19814;SDS011;10067;53.092;8.800;2024-02-26T08:27:34;54.77;;;32.63;;
19814;SDS011;10067;53.092;8.800;2024-02-26T08:30:00;54.87;;;32.53;;
19814;SDS011;10067;53.092;8.800;2024-02-26T08:32:28;58.43;;;34.73;;
19814;SDS011;10067;53.092;8.800;2024-02-26T08:34:54;61.50;;;34.80;;
19814;SDS011;10067;53.092;8.800;2024-02-26T08:37:22;58.13;;;34.00;;
19814;SDS011;10067;53.092;8.800;2024-02-26T08:39:49;56.90;;;33.33;;
19814;SDS011;10067;53.092;8.800;2024-02-26T08:42:15;53.87;;;33.40;;
19814;SDS011;10067;53.092;8.800;2024-02-26T08:44:41;59.20;;;34.53;;
19814;SDS011;10067;53.092;8.800;2024-02-26T08:47:08;52.70;;;32.40;;
19814;SDS011;10067;53.092;8.800;2024-02-26T08:49:34;54.80;;;31.27;;
19814;SDS011;10067;53.092;8.800;2024-02-26T08:52:01;51.50;;;31.77;;
19814;SDS011;10067;53.092;8.800;2024-02-26T08:54:30;51.53;;;30.60;;
19814;SDS011;10067;53.092;8.800;2024-02-26T08:56:57;50.67;;;30.63;;
19814;SDS011;10067;53.092;8.800;2024-02-26T08:59:24;52.10;;;31.37;;
19814;SDS011;10067;53.092;8.800;2024-02-26T09:01:50;56.73;;;33.13;;
19814;SDS011;10067;53.092;8.800;2024-02-26T09:04:16;47.83;;;30.07;;
19814;SDS011;10067;53.092;8.800;2024-02-26T09:06:43;47.77;;;29.57;;
19814;SDS011;10067;53.092;8.800;2024-02-26T09:09:09;47.97;;;29.70;;
19814;SDS011;10067;53.092;8.800;2024-02-26T09:11:37;45.77;;;28.00;;
19814;SDS011;10067;53.092;8.800;2024-02-26T09:14:03;45.00;;;27.97;;
19814;SDS011;10067;53.092;8.800;2024-02-26T09:16:30;42.30;;;27.27;;
19814;SDS011;10067;53.092;8.800;2024-02-26T09:18:56;43.57;;;27.87;;
19814;SDS011;10067;53.092;8.800;2024-02-26T09:21:23;41.97;;;26.37;;
19814;SDS011;10067;53.092;8.800;2024-02-26T09:23:50;41.27;;;25.93;;
19814;SDS011;10067;53.092;8.800;2024-02-26T09:26:16;37.20;;;24.33;;
19814;SDS011;10067;53.092;8.800;2024-02-26T09:28:44;37.57;;;25.00;;
19814;SDS011;10067;53.092;8.800;2024-02-26T09:31:10;37.67;;;24.70;;
19814;SDS011;10067;53.092;8.800;2024-02-26T09:33:37;36.03;;;24.20;;
19814;SDS011;10067;53.092;8.800;2024-02-26T09:36:03;35.83;;;23.00;;
19814;SDS011;10067;53.092;8.800;2024-02-26T09:38:31;36.73;;;23.43;;
19814;SDS011;10067;53.092;8.800;2024-02-26T09:41:02;38.83;;;23.17;;
19814;SDS011;10067;53.092;8.800;2024-02-26T09:43:30;33.67;;;22.03;;
19814;SDS011;10067;53.092;8.800;2024-02-26T09:46:00;36.50;;;24.10;;
19814;SDS011;10067;53.092;8.800;2024-02-26T09:48:27;35.83;;;23.53;;
19814;SDS011;10067;53.092;8.800;2024-02-26T09:50:54;35.03;;;23.20;;
19814;SDS011;10067;53.092;8.800;2024-02-26T09:53:21;31.03;;;21.83;;
19814;SDS011;10067;53.092;8.800;2024-02-26T09:55:48;30.90;;;21.63;;
19814;SDS011;10067;53.092;8.800;2024-02-26T09:58:14;31.77;;;21.43;;
19814;SDS011;10067;53.092;8.800;2024-02-26T10:00:44;31.60;;;20.20;;
19814;SDS011;10067;53.092;8.800;2024-02-26T10:03:13;27.37;;;19.90;;
19814;SDS011;10067;53.092;8.800;2024-02-26T10:05:41;29.60;;;19.90;;
19814;SDS011;10067;53.092;8.800;2024-02-26T10:08:08;27.87;;;19.00;;
19814;SDS011;10067;53.092;8.800;2024-02-26T10:10:35;25.53;;;18.67;;
19814;SDS011;10067;53.092;8.800;2024-02-26T10:13:02;24.07;;;17.60;;
19814;SDS011;10067;53.092;8.800;2024-02-26T10:15:34;28.00;;;18.43;;
19814;SDS011;10067;53.092;8.800;2024-02-26T10:18:03;24.17;;;18.47;;
19814;SDS011;10067;53.092;8.800;2024-02-26T10:20:31;25.70;;;17.90;;
19814;SDS011;10067;53.092;8.800;2024-02-26T10:22:57;25.30;;;17.27;;
19814;SDS011;10067;53.092;8.800;2024-02-26T10:25:24;24.70;;;17.03;;
19814;SDS011;10067;53.092;8.800;2024-02-26T10:27:50;27.48;;;17.38;;
19814;SDS011;10067;53.092;8.800;2024-02-26T10:30:17;22.93;;;16.57;;
19814;SDS011;10067;53.092;8.800;2024-02-26T10:32:44;21.58;;;15.75;;
19814;SDS011;10067;53.092;8.800;2024-02-26T10:35:11;21.07;;;16.20;;
19814;SDS011;10067;53.092;8.800;2024-02-26T10:37:39;21.33;;;15.67;;
19814;SDS011;10067;53.092;8.800;2024-02-26T10:40:06;22.60;;;16.53;;
19814;SDS011;10067;53.092;8.800;2024-02-26T10:42:35;24.40;;;16.98;;
19814;SDS011;10067;53.092;8.800;2024-02-26T10:45:02;20.65;;;16.20;;
19814;SDS011;10067;53.092;8.800;2024-02-26T10:47:29;21.55;;;15.25;;
19814;SDS011;10067;53.092;8.800;2024-02-26T10:49:56;21.08;;;15.05;;
19814;SDS011;10067;53.092;8.800;2024-02-26T10:52:23;25.75;;;16.73;;
19814;SDS011;10067;53.092;8.800;2024-02-26T10:54:53;24.10;;;16.75;;
19814;SDS011;10067;53.092;8.800;2024-02-26T10:57:20;24.52;;;17.25;;
19814;SDS011;10067;53.092;8.800;2024-02-26T10:59:47;22.08;;;15.98;;
19814;SDS011;10067;53.092;8.800;2024-02-26T11:02:14;23.05;;;16.45;;
19814;SDS011;10067;53.092;8.800;2024-02-26T11:04:40;22.05;;;15.88;;
19814;SDS011;10067;53.092;8.800;2024-02-26T11:07:08;22.60;;;16.38;;
19814;SDS011;10067;53.092;8.800;2024-02-26T11:09:35;23.85;;;17.33;;
19814;SDS011;10067;53.092;8.800;2024-02-26T11:12:03;22.17;;;15.90;;
19814;SDS011;10067;53.092;8.800;2024-02-26T11:14:35;22.60;;;15.60;;
19814;SDS011;10067;53.092;8.800;2024-02-26T11:17:02;33.47;;;20.60;;
19814;SDS011;10067;53.092;8.800;2024-02-26T11:19:28;24.30;;;18.15;;
19814;SDS011;10067;53.092;8.800;2024-02-26T11:21:56;24.35;;;17.75;;
19814;SDS011;10067;53.092;8.800;2024-02-26T11:24:22;24.00;;;17.02;;
19814;SDS011;10067;53.092;8.800;2024-02-26T11:26:49;23.90;;;16.13;;
19814;SDS011;10067;53.092;8.800;2024-02-26T11:29:25;20.63;;;15.38;;
19814;SDS011;10067;53.092;8.800;2024-02-26T11:31:53;18.85;;;14.88;;
19814;SDS011;10067;53.092;8.800;2024-02-26T11:34:19;21.23;;;16.15;;
19814;SDS011;10067;53.092;8.800;2024-02-26T11:36:46;21.38;;;15.88;;
19814;SDS011;10067;53.092;8.800;2024-02-26T11:39:13;18.50;;;14.52;;
19814;SDS011;10067;53.092;8.800;2024-02-26T11:41:41;20.73;;;14.98;;
19814;SDS011;10067;53.092;8.800;2024-02-26T11:44:08;21.15;;;15.48;;
19814;SDS011;10067;53.092;8.800;2024-02-26T11:46:39;19.02;;;14.10;;
19814;SDS011;10067;53.092;8.800;2024-02-26T11:51:50;20.10;;;15.27;;
19814;SDS011;10067;53.092;8.800;2024-02-26T11:56:58;19.77;;;14.50;;
19814;SDS011;10067;53.092;8.800;2024-02-26T11:59:36;19.48;;;14.68;;
19814;SDS011;10067;53.092;8.800;2024-02-26T12:02:04;17.25;;;13.05;;
19814;SDS011;10067;53.092;8.800;2024-02-26T12:04:31;20.40;;;14.95;;
19814;SDS011;10067;53.092;8.800;2024-02-26T12:06:57;27.70;;;17.52;;
19814;SDS011;10067;53.092;8.800;2024-02-26T12:09:31;24.20;;;16.88;;
19814;SDS011;10067;53.092;8.800;2024-02-26T12:11:58;18.30;;;13.68;;
19814;SDS011;10067;53.092;8.800;2024-02-26T12:14:25;18.08;;;14.15;;
19814;SDS011;10067;53.092;8.800;2024-02-26T12:16:52;17.23;;;13.10;;
19814;SDS011;10067;53.092;8.800;2024-02-26T12:19:20;16.73;;;13.27;;
19814;SDS011;10067;53.092;8.800;2024-02-26T12:21:50;18.13;;;13.93;;
19814;SDS011;10067;53.092;8.800;2024-02-26T12:24:17;18.15;;;13.27;;
19814;SDS011;10067;53.092;8.800;2024-02-26T12:26:45;19.92;;;13.23;;
19814;SDS011;10067;53.092;8.800;2024-02-26T12:29:11;14.98;;;12.55;;
19814;SDS011;10067;53.092;8.800;2024-02-26T12:31:39;15.68;;;12.77;;
19814;SDS011;10067;53.092;8.800;2024-02-26T12:34:07;15.77;;;12.15;;
19814;SDS011;10067;53.092;8.800;2024-02-26T12:36:36;16.35;;;12.60;;
19814;SDS011;10067;53.092;8.800;2024-02-26T12:39:03;16.45;;;13.25;;
19814;SDS011;10067;53.092;8.800;2024-02-26T12:41:31;18.73;;;12.75;;
19814;SDS011;10067;53.092;8.800;2024-02-26T12:43:57;18.80;;;12.60;;
19814;SDS011;10067;53.092;8.800;2024-02-26T12:46:24;17.00;;;12.90;;
19814;SDS011;10067;53.092;8.800;2024-02-26T12:48:50;19.17;;;13.90;;
19814;SDS011;10067;53.092;8.800;2024-02-26T12:51:17;21.27;;;13.77;;
19814;SDS011;10067;53.092;8.800;2024-02-26T12:53:45;20.95;;;13.50;;
19814;SDS011;10067;53.092;8.800;2024-02-26T12:56:12;23.38;;;14.63;;
19814;SDS011;10067;53.092;8.800;2024-02-26T12:58:38;18.52;;;12.85;;
19814;SDS011;10067;53.092;8.800;2024-02-26T13:01:06;23.83;;;13.95;;
19814;SDS011;10067;53.092;8.800;2024-02-26T13:03:32;28.73;;;15.75;;
19814;SDS011;10067;53.092;8.800;2024-02-26T13:05:59;28.30;;;16.73;;
19814;SDS011;10067;53.092;8.800;2024-02-26T13:08:25;24.13;;;14.10;;
19814;SDS011;10067;53.092;8.800;2024-02-26T13:10:53;20.20;;;13.77;;
19814;SDS011;10067;53.092;8.800;2024-02-26T13:13:19;19.27;;;12.88;;
19814;SDS011;10067;53.092;8.800;2024-02-26T13:15:46;19.92;;;13.40;;
19814;SDS011;10067;53.092;8.800;2024-02-26T13:18:13;20.15;;;12.77;;
19814;SDS011;10067;53.092;8.800;2024-02-26T13:20:39;20.42;;;12.52;;
19814;SDS011;10067;53.092;8.800;2024-02-26T13:23:06;19.55;;;13.13;;
19814;SDS011;10067;53.092;8.800;2024-02-26T13:25:33;16.48;;;11.63;;
19814;SDS011;10067;53.092;8.800;2024-02-26T13:28:08;17.40;;;12.40;;
19814;SDS011;10067;53.092;8.800;2024-02-26T13:30:35;19.45;;;12.70;;
19814;SDS011;10067;53.092;8.800;2024-02-26T13:33:06;17.65;;;11.95;;
19814;SDS011;10067;53.092;8.800;2024-02-26T13:35:33;15.73;;;11.85;;
19814;SDS011;10067;53.092;8.800;2024-02-26T13:38:00;16.27;;;12.05;;
19814;SDS011;10067;53.092;8.800;2024-02-26T13:40:26;14.90;;;11.15;;
19814;SDS011;10067;53.092;8.800;2024-02-26T13:42:53;18.13;;;11.88;;
19814;SDS011;10067;53.092;8.800;2024-02-26T13:45:20;13.80;;;11.40;;
19814;SDS011;10067;53.092;8.800;2024-02-26T13:47:47;14.80;;;11.35;;
19814;SDS011;10067;53.092;8.800;2024-02-26T13:50:13;13.43;;;10.90;;
19814;SDS011;10067;53.092;8.800;2024-02-26T13:52:39;13.15;;;11.10;;
19814;SDS011;10067;53.092;8.800;2024-02-26T13:55:06;17.27;;;12.13;;
19814;SDS011;10067;53.092;8.800;2024-02-26T13:57:33;15.02;;;11.38;;
19814;SDS011;10067;53.092;8.800;2024-02-26T13:59:59;16.23;;;11.95;;
19814;SDS011;10067;53.092;8.800;2024-02-26T14:02:27;15.90;;;11.57;;
19814;SDS011;10067;53.092;8.800;2024-02-26T14:04:54;17.80;;;12.10;;
19814;SDS011;10067;53.092;8.800;2024-02-26T14:07:20;15.73;;;11.02;;
19814;SDS011;10067;53.092;8.800;2024-02-26T14:09:46;15.20;;;11.52;;
19814;SDS011;10067;53.092;8.800;2024-02-26T14:12:13;15.95;;;12.32;;
19814;SDS011;10067;53.092;8.800;2024-02-26T14:14:39;13.85;;;11.52;;
19814;SDS011;10067;53.092;8.800;2024-02-26T14:17:07;16.98;;;12.90;;
19814;SDS011;10067;53.092;8.800;2024-02-26T14:19:35;16.50;;;12.13;;
19814;SDS011;10067;53.092;8.800;2024-02-26T14:22:02;21.23;;;13.70;;
19814;SDS011;10067;53.092;8.800;2024-02-26T14:24:29;21.00;;;14.45;;